sensor_id;sensor_type;location;lat;lon;timestamp;P1;durP1;ratioP1;P2;durP2;ratioP2
54743;SDS011;40639;53.170;6.728;2022-12-11T00:00:18;38.53;;;13.55;;
54743;SDS011;40639;53.170;6.728;2022-12-11T00:02:44;32.80;;;14.27;;
54743;SDS011;40639;53.170;6.728;2022-12-11T00:05:10;42.20;;;13.43;;
54743;SDS011;40639;53.170;6.728;2022-12-11T00:07:37;45.40;;;14.90;;
54743;SDS011;40639;53.170;6.728;2022-12-11T00:10:03;43.10;;;15.63;;
54743;SDS011;40639;53.170;6.728;2022-12-11T00:12:30;44.72;;;14.63;;
54743;SDS011;40639;53.170;6.728;2022-12-11T00:14:56;46.40;;;15.35;;
54743;SDS011;40639;53.170;6.728;2022-12-11T00:17:22;40.67;;;16.50;;
54743;SDS011;40639;53.170;6.728;2022-12-11T00:19:48;40.50;;;14.77;;
54743;SDS011;40639;53.170;6.728;2022-12-11T00:22:15;38.15;;;14.80;;
54743;SDS011;40639;53.170;6.728;2022-12-11T00:24:41;42.22;;;15.40;;
54743;SDS011;40639;53.170;6.728;2022-12-11T00:27:07;29.67;;;12.40;;
54743;SDS011;40639;53.170;6.728;2022-12-11T00:29:33;42.38;;;14.63;;
54743;SDS011;40639;53.170;6.728;2022-12-11T00:32:00;38.75;;;15.20;;
54743;SDS011;40639;53.170;6.728;2022-12-11T00:34:26;42.45;;;15.40;;
54743;SDS011;40639;53.170;6.728;2022-12-11T00:36:52;41.25;;;13.88;;
54743;SDS011;40639;53.170;6.728;2022-12-11T00:39:18;36.63;;;13.93;;
54743;SDS011;40639;53.170;6.728;2022-12-11T00:41:44;33.80;;;13.25;;
54743;SDS011;40639;53.170;6.728;2022-12-11T00:44:10;32.70;;;13.18;;
54743;SDS011;40639;53.170;6.728;2022-12-11T00:46:36;33.45;;;13.75;;
54743;SDS011;40639;53.170;6.728;2022-12-11T00:49:02;31.40;;;12.55;;
54743;SDS011;40639;53.170;6.728;2022-12-11T00:51:29;34.38;;;13.10;;
54743;SDS011;40639;53.170;6.728;2022-12-11T00:53:55;26.38;;;11.63;;
54743;SDS011;40639;53.170;6.728;2022-12-11T00:56:21;30.45;;;12.65;;
54743;SDS011;40639;53.170;6.728;2022-12-11T00:58:48;26.77;;;10.77;;
54743;SDS011;40639;53.170;6.728;2022-12-11T01:01:16;28.27;;;11.20;;
54743;SDS011;40639;53.170;6.728;2022-12-11T01:03:42;28.85;;;12.65;;
54743;SDS011;40639;53.170;6.728;2022-12-11T01:06:12;34.40;;;12.85;;
54743;SDS011;40639;53.170;6.728;2022-12-11T01:08:39;27.13;;;13.02;;
54743;SDS011;40639;53.170;6.728;2022-12-11T01:11:07;29.45;;;11.82;;
54743;SDS011;40639;53.170;6.728;2022-12-11T01:13:34;29.58;;;11.38;;
54743;SDS011;40639;53.170;6.728;2022-12-11T01:16:04;30.63;;;11.95;;
54743;SDS011;40639;53.170;6.728;2022-12-11T01:18:30;28.00;;;12.05;;
54743;SDS011;40639;53.170;6.728;2022-12-11T01:20:56;33.80;;;11.75;;
54743;SDS011;40639;53.170;6.728;2022-12-11T01:23:23;28.80;;;12.02;;
54743;SDS011;40639;53.170;6.728;2022-12-11T01:25:49;30.15;;;13.20;;
54743;SDS011;40639;53.170;6.728;2022-12-11T01:28:15;29.80;;;12.25;;
54743;SDS011;40639;53.170;6.728;2022-12-11T01:30:41;33.22;;;13.00;;
54743;SDS011;40639;53.170;6.728;2022-12-11T01:33:08;28.85;;;11.32;;
54743;SDS011;40639;53.170;6.728;2022-12-11T01:35:34;27.23;;;11.93;;
54743;SDS011;40639;53.170;6.728;2022-12-11T01:38:00;27.88;;;10.60;;
54743;SDS011;40639;53.170;6.728;2022-12-11T01:40:26;30.75;;;11.48;;
54743;SDS011;40639;53.170;6.728;2022-12-11T01:42:53;28.67;;;11.43;;
54743;SDS011;40639;53.170;6.728;2022-12-11T01:45:22;29.80;;;11.88;;
54743;SDS011;40639;53.170;6.728;2022-12-11T01:47:49;28.92;;;11.40;;
54743;SDS011;40639;53.170;6.728;2022-12-11T01:50:17;27.45;;;10.73;;
54743;SDS011;40639;53.170;6.728;2022-12-11T01:52:44;26.35;;;11.13;;
54743;SDS011;40639;53.170;6.728;2022-12-11T01:55:11;25.00;;;11.63;;
54743;SDS011;40639;53.170;6.728;2022-12-11T01:57:38;26.50;;;10.48;;
54743;SDS011;40639;53.170;6.728;2022-12-11T02:00:05;26.73;;;11.68;;
54743;SDS011;40639;53.170;6.728;2022-12-11T02:02:32;26.02;;;10.52;;
54743;SDS011;40639;53.170;6.728;2022-12-11T02:04:58;25.60;;;10.50;;
54743;SDS011;40639;53.170;6.728;2022-12-11T02:07:27;24.70;;;10.48;;
54743;SDS011;40639;53.170;6.728;2022-12-11T02:09:53;24.67;;;10.52;;
54743;SDS011;40639;53.170;6.728;2022-12-11T02:15:07;29.40;;;11.18;;
54743;SDS011;40639;53.170;6.728;2022-12-11T02:17:42;26.92;;;10.40;;
54743;SDS011;40639;53.170;6.728;2022-12-11T02:22:52;24.60;;;9.93;;
54743;SDS011;40639;53.170;6.728;2022-12-11T02:30:47;30.65;;;11.13;;
54743;SDS011;40639;53.170;6.728;2022-12-11T02:33:15;29.58;;;10.55;;
54743;SDS011;40639;53.170;6.728;2022-12-11T02:35:41;26.98;;;11.38;;
54743;SDS011;40639;53.170;6.728;2022-12-11T02:38:14;29.90;;;11.48;;
54743;SDS011;40639;53.170;6.728;2022-12-11T02:40:42;31.85;;;12.05;;
54743;SDS011;40639;53.170;6.728;2022-12-11T02:43:09;28.27;;;11.30;;
54743;SDS011;40639;53.170;6.728;2022-12-11T02:45:36;30.08;;;11.38;;
54743;SDS011;40639;53.170;6.728;2022-12-11T02:48:04;29.42;;;12.70;;
54743;SDS011;40639;53.170;6.728;2022-12-11T02:50:30;29.88;;;12.93;;
54743;SDS011;40639;53.170;6.728;2022-12-11T02:52:57;29.73;;;12.40;;
54743;SDS011;40639;53.170;6.728;2022-12-11T02:55:25;31.23;;;11.65;;
54743;SDS011;40639;53.170;6.728;2022-12-11T02:58:12;28.75;;;11.55;;
54743;SDS011;40639;53.170;6.728;2022-12-11T03:00:39;27.57;;;11.23;;
54743;SDS011;40639;53.170;6.728;2022-12-11T03:03:05;28.70;;;10.98;;
54743;SDS011;40639;53.170;6.728;2022-12-11T03:05:31;26.92;;;11.27;;
54743;SDS011;40639;53.170;6.728;2022-12-11T03:07:57;32.78;;;12.52;;
54743;SDS011;40639;53.170;6.728;2022-12-11T03:10:23;31.25;;;12.02;;
54743;SDS011;40639;53.170;6.728;2022-12-11T03:12:51;26.88;;;11.45;;
54743;SDS011;40639;53.170;6.728;2022-12-11T03:15:18;32.10;;;11.63;;
54743;SDS011;40639;53.170;6.728;2022-12-11T03:25:19;30.83;;;12.80;;
54743;SDS011;40639;53.170;6.728;2022-12-11T03:28:05;33.33;;;11.45;;
54743;SDS011;40639;53.170;6.728;2022-12-11T03:30:33;30.45;;;12.25;;
54743;SDS011;40639;53.170;6.728;2022-12-11T03:33:05;34.55;;;12.27;;
54743;SDS011;40639;53.170;6.728;2022-12-11T03:35:40;34.45;;;11.48;;
54743;SDS011;40639;53.170;6.728;2022-12-11T03:38:08;28.48;;;10.65;;
54743;SDS011;40639;53.170;6.728;2022-12-11T03:40:36;29.85;;;11.13;;
54743;SDS011;40639;53.170;6.728;2022-12-11T03:43:04;30.23;;;12.23;;
54743;SDS011;40639;53.170;6.728;2022-12-11T03:45:31;33.47;;;11.93;;
54743;SDS011;40639;53.170;6.728;2022-12-11T03:47:58;26.60;;;10.80;;
54743;SDS011;40639;53.170;6.728;2022-12-11T03:50:26;29.95;;;10.88;;
54743;SDS011;40639;53.170;6.728;2022-12-11T03:52:53;24.75;;;10.60;;
54743;SDS011;40639;53.170;6.728;2022-12-11T03:55:20;33.50;;;11.93;;
54743;SDS011;40639;53.170;6.728;2022-12-11T03:57:47;28.67;;;11.10;;
54743;SDS011;40639;53.170;6.728;2022-12-11T04:00:14;32.40;;;12.15;;
54743;SDS011;40639;53.170;6.728;2022-12-11T04:02:41;28.23;;;10.93;;
54743;SDS011;40639;53.170;6.728;2022-12-11T04:05:08;28.02;;;11.40;;
54743;SDS011;40639;53.170;6.728;2022-12-11T04:07:34;27.05;;;11.27;;
54743;SDS011;40639;53.170;6.728;2022-12-11T04:10:00;33.22;;;12.68;;
54743;SDS011;40639;53.170;6.728;2022-12-11T04:12:27;34.03;;;12.18;;
54743;SDS011;40639;53.170;6.728;2022-12-11T04:14:53;36.65;;;13.73;;
54743;SDS011;40639;53.170;6.728;2022-12-11T04:17:32;25.90;;;11.55;;
54743;SDS011;40639;53.170;6.728;2022-12-11T04:20:18;34.08;;;12.43;;
54743;SDS011;40639;53.170;6.728;2022-12-11T04:23:04;34.35;;;13.27;;
54743;SDS011;40639;53.170;6.728;2022-12-11T04:25:50;30.50;;;12.00;;
54743;SDS011;40639;53.170;6.728;2022-12-11T04:28:16;31.00;;;11.82;;
54743;SDS011;40639;53.170;6.728;2022-12-11T04:30:46;27.15;;;12.18;;
54743;SDS011;40639;53.170;6.728;2022-12-11T04:33:13;24.88;;;10.18;;
54743;SDS011;40639;53.170;6.728;2022-12-11T04:35:39;25.85;;;10.90;;
54743;SDS011;40639;53.170;6.728;2022-12-11T04:38:05;26.48;;;11.48;;
54743;SDS011;40639;53.170;6.728;2022-12-11T04:40:31;24.30;;;11.27;;
54743;SDS011;40639;53.170;6.728;2022-12-11T04:42:57;25.52;;;11.40;;
54743;SDS011;40639;53.170;6.728;2022-12-11T04:45:23;26.10;;;10.07;;
54743;SDS011;40639;53.170;6.728;2022-12-11T04:47:49;29.70;;;11.18;;
54743;SDS011;40639;53.170;6.728;2022-12-11T04:50:16;26.33;;;10.38;;
54743;SDS011;40639;53.170;6.728;2022-12-11T04:52:42;33.55;;;12.15;;
54743;SDS011;40639;53.170;6.728;2022-12-11T04:55:09;29.08;;;11.07;;
54743;SDS011;40639;53.170;6.728;2022-12-11T04:57:35;29.17;;;11.35;;
54743;SDS011;40639;53.170;6.728;2022-12-11T05:00:03;23.95;;;10.77;;
54743;SDS011;40639;53.170;6.728;2022-12-11T05:02:29;29.52;;;10.55;;
54743;SDS011;40639;53.170;6.728;2022-12-11T05:04:58;24.90;;;10.40;;
54743;SDS011;40639;53.170;6.728;2022-12-11T05:07:24;25.05;;;10.32;;
54743;SDS011;40639;53.170;6.728;2022-12-11T05:09:50;30.05;;;11.68;;
54743;SDS011;40639;53.170;6.728;2022-12-11T05:12:17;30.20;;;10.65;;
54743;SDS011;40639;53.170;6.728;2022-12-11T05:14:43;27.02;;;10.00;;
54743;SDS011;40639;53.170;6.728;2022-12-11T05:17:09;26.02;;;9.82;;
54743;SDS011;40639;53.170;6.728;2022-12-11T05:19:35;26.85;;;10.80;;
54743;SDS011;40639;53.170;6.728;2022-12-11T05:22:01;31.70;;;11.85;;
54743;SDS011;40639;53.170;6.728;2022-12-11T05:24:27;29.05;;;10.80;;
54743;SDS011;40639;53.170;6.728;2022-12-11T05:26:53;28.20;;;11.75;;
54743;SDS011;40639;53.170;6.728;2022-12-11T05:29:20;29.38;;;11.98;;
54743;SDS011;40639;53.170;6.728;2022-12-11T05:31:46;31.85;;;12.27;;
54743;SDS011;40639;53.170;6.728;2022-12-11T05:34:12;26.92;;;11.02;;
54743;SDS011;40639;53.170;6.728;2022-12-11T05:36:39;28.27;;;11.35;;
54743;SDS011;40639;53.170;6.728;2022-12-11T05:39:06;29.25;;;11.32;;
54743;SDS011;40639;53.170;6.728;2022-12-11T05:41:32;24.77;;;10.65;;
54743;SDS011;40639;53.170;6.728;2022-12-11T05:43:59;26.70;;;10.57;;
54743;SDS011;40639;53.170;6.728;2022-12-11T05:46:26;25.73;;;10.30;;
54743;SDS011;40639;53.170;6.728;2022-12-11T05:48:53;28.50;;;11.82;;
54743;SDS011;40639;53.170;6.728;2022-12-11T05:51:20;30.85;;;11.15;;
54743;SDS011;40639;53.170;6.728;2022-12-11T05:53:47;30.15;;;11.38;;
54743;SDS011;40639;53.170;6.728;2022-12-11T05:56:14;28.00;;;10.73;;
54743;SDS011;40639;53.170;6.728;2022-12-11T05:58:41;27.90;;;10.82;;
54743;SDS011;40639;53.170;6.728;2022-12-11T06:01:12;25.65;;;10.80;;
54743;SDS011;40639;53.170;6.728;2022-12-11T06:03:39;28.50;;;10.07;;
54743;SDS011;40639;53.170;6.728;2022-12-11T06:06:05;25.83;;;11.23;;
54743;SDS011;40639;53.170;6.728;2022-12-11T06:08:31;26.60;;;10.98;;
54743;SDS011;40639;53.170;6.728;2022-12-11T06:10:57;26.48;;;10.85;;
54743;SDS011;40639;53.170;6.728;2022-12-11T06:13:23;26.20;;;10.73;;
54743;SDS011;40639;53.170;6.728;2022-12-11T06:15:50;27.05;;;10.32;;
54743;SDS011;40639;53.170;6.728;2022-12-11T06:18:16;26.52;;;9.90;;
54743;SDS011;40639;53.170;6.728;2022-12-11T06:20:42;27.23;;;11.57;;
54743;SDS011;40639;53.170;6.728;2022-12-11T06:23:08;28.77;;;11.50;;
54743;SDS011;40639;53.170;6.728;2022-12-11T06:25:36;28.02;;;12.23;;
54743;SDS011;40639;53.170;6.728;2022-12-11T06:28:03;34.13;;;12.48;;
54743;SDS011;40639;53.170;6.728;2022-12-11T06:30:29;29.27;;;10.50;;
54743;SDS011;40639;53.170;6.728;2022-12-11T06:32:56;25.00;;;11.00;;
54743;SDS011;40639;53.170;6.728;2022-12-11T06:35:23;25.70;;;10.15;;
54743;SDS011;40639;53.170;6.728;2022-12-11T06:37:49;27.52;;;11.68;;
54743;SDS011;40639;53.170;6.728;2022-12-11T06:40:15;25.00;;;11.15;;
54743;SDS011;40639;53.170;6.728;2022-12-11T06:42:41;28.13;;;10.70;;
54743;SDS011;40639;53.170;6.728;2022-12-11T06:45:07;26.70;;;9.15;;
54743;SDS011;40639;53.170;6.728;2022-12-11T06:47:34;21.75;;;10.45;;
54743;SDS011;40639;53.170;6.728;2022-12-11T06:50:00;30.98;;;10.88;;
54743;SDS011;40639;53.170;6.728;2022-12-11T06:52:26;25.95;;;11.25;;
54743;SDS011;40639;53.170;6.728;2022-12-11T06:54:53;25.27;;;11.02;;
54743;SDS011;40639;53.170;6.728;2022-12-11T06:57:19;32.25;;;11.70;;
54743;SDS011;40639;53.170;6.728;2022-12-11T06:59:45;30.63;;;12.10;;
54743;SDS011;40639;53.170;6.728;2022-12-11T07:02:12;30.92;;;11.10;;
54743;SDS011;40639;53.170;6.728;2022-12-11T07:04:39;27.48;;;11.00;;
54743;SDS011;40639;53.170;6.728;2022-12-11T07:07:05;26.55;;;11.73;;
54743;SDS011;40639;53.170;6.728;2022-12-11T07:09:31;27.00;;;10.77;;
54743;SDS011;40639;53.170;6.728;2022-12-11T07:11:58;27.60;;;11.40;;
54743;SDS011;40639;53.170;6.728;2022-12-11T07:14:24;25.90;;;11.43;;
54743;SDS011;40639;53.170;6.728;2022-12-11T07:16:50;27.75;;;10.88;;
54743;SDS011;40639;53.170;6.728;2022-12-11T07:19:16;28.83;;;10.48;;
54743;SDS011;40639;53.170;6.728;2022-12-11T07:21:42;25.05;;;9.98;;
54743;SDS011;40639;53.170;6.728;2022-12-11T07:24:09;25.23;;;10.20;;
54743;SDS011;40639;53.170;6.728;2022-12-11T07:26:35;24.45;;;9.85;;
54743;SDS011;40639;53.170;6.728;2022-12-11T07:29:01;26.60;;;10.95;;
54743;SDS011;40639;53.170;6.728;2022-12-11T07:31:28;24.20;;;10.77;;
54743;SDS011;40639;53.170;6.728;2022-12-11T07:33:54;29.25;;;11.40;;
54743;SDS011;40639;53.170;6.728;2022-12-11T07:36:21;26.83;;;11.35;;
54743;SDS011;40639;53.170;6.728;2022-12-11T07:38:47;27.13;;;10.90;;
54743;SDS011;40639;53.170;6.728;2022-12-11T07:41:14;27.52;;;10.38;;
54743;SDS011;40639;53.170;6.728;2022-12-11T07:43:40;28.92;;;10.23;;
54743;SDS011;40639;53.170;6.728;2022-12-11T07:46:12;30.42;;;11.50;;
54743;SDS011;40639;53.170;6.728;2022-12-11T07:48:39;28.75;;;10.48;;
54743;SDS011;40639;53.170;6.728;2022-12-11T07:53:44;28.33;;;10.65;;
54743;SDS011;40639;53.170;6.728;2022-12-11T07:56:11;32.55;;;12.85;;
54743;SDS011;40639;53.170;6.728;2022-12-11T07:58:37;28.38;;;11.25;;
54743;SDS011;40639;53.170;6.728;2022-12-11T08:01:12;32.80;;;12.88;;
54743;SDS011;40639;53.170;6.728;2022-12-11T08:03:39;35.40;;;12.52;;
54743;SDS011;40639;53.170;6.728;2022-12-11T08:06:06;32.25;;;12.65;;
54743;SDS011;40639;53.170;6.728;2022-12-11T08:08:32;34.28;;;12.70;;
54743;SDS011;40639;53.170;6.728;2022-12-11T08:10:59;29.90;;;12.25;;
54743;SDS011;40639;53.170;6.728;2022-12-11T08:13:25;34.10;;;12.45;;
54743;SDS011;40639;53.170;6.728;2022-12-11T08:15:52;32.97;;;12.55;;
54743;SDS011;40639;53.170;6.728;2022-12-11T08:18:18;32.60;;;11.95;;
54743;SDS011;40639;53.170;6.728;2022-12-11T08:20:44;31.08;;;11.77;;
54743;SDS011;40639;53.170;6.728;2022-12-11T08:23:10;25.90;;;10.57;;
54743;SDS011;40639;53.170;6.728;2022-12-11T08:25:36;32.72;;;12.25;;
54743;SDS011;40639;53.170;6.728;2022-12-11T08:28:02;32.47;;;11.65;;
54743;SDS011;40639;53.170;6.728;2022-12-11T08:30:28;28.30;;;10.85;;
54743;SDS011;40639;53.170;6.728;2022-12-11T08:32:56;41.35;;;13.30;;
54743;SDS011;40639;53.170;6.728;2022-12-11T08:35:22;30.98;;;12.55;;
54743;SDS011;40639;53.170;6.728;2022-12-11T08:37:48;30.92;;;11.43;;
54743;SDS011;40639;53.170;6.728;2022-12-11T08:40:14;33.42;;;11.45;;
54743;SDS011;40639;53.170;6.728;2022-12-11T08:42:40;26.67;;;11.15;;
54743;SDS011;40639;53.170;6.728;2022-12-11T08:45:07;32.67;;;11.05;;
54743;SDS011;40639;53.170;6.728;2022-12-11T08:47:33;31.35;;;11.13;;
54743;SDS011;40639;53.170;6.728;2022-12-11T08:49:59;29.85;;;11.95;;
54743;SDS011;40639;53.170;6.728;2022-12-11T08:52:25;29.00;;;12.23;;
54743;SDS011;40639;53.170;6.728;2022-12-11T08:54:51;30.95;;;11.45;;
54743;SDS011;40639;53.170;6.728;2022-12-11T08:57:17;32.30;;;12.00;;
54743;SDS011;40639;53.170;6.728;2022-12-11T08:59:43;29.83;;;11.95;;
54743;SDS011;40639;53.170;6.728;2022-12-11T09:02:10;32.80;;;12.02;;
54743;SDS011;40639;53.170;6.728;2022-12-11T09:04:37;32.08;;;12.73;;
54743;SDS011;40639;53.170;6.728;2022-12-11T09:07:03;34.05;;;13.10;;
54743;SDS011;40639;53.170;6.728;2022-12-11T09:09:29;28.20;;;11.60;;
54743;SDS011;40639;53.170;6.728;2022-12-11T09:11:55;35.42;;;12.52;;
54743;SDS011;40639;53.170;6.728;2022-12-11T09:14:21;37.53;;;13.18;;
54743;SDS011;40639;53.170;6.728;2022-12-11T09:16:48;31.02;;;12.25;;
54743;SDS011;40639;53.170;6.728;2022-12-11T09:19:14;37.63;;;13.07;;
54743;SDS011;40639;53.170;6.728;2022-12-11T09:21:42;32.75;;;11.88;;
54743;SDS011;40639;53.170;6.728;2022-12-11T09:24:08;31.05;;;12.63;;
54743;SDS011;40639;53.170;6.728;2022-12-11T09:26:35;27.17;;;12.00;;
54743;SDS011;40639;53.170;6.728;2022-12-11T09:29:01;36.50;;;13.85;;
54743;SDS011;40639;53.170;6.728;2022-12-11T09:31:29;38.17;;;13.23;;
54743;SDS011;40639;53.170;6.728;2022-12-11T09:33:57;34.40;;;11.73;;
54743;SDS011;40639;53.170;6.728;2022-12-11T09:36:24;30.25;;;13.32;;
54743;SDS011;40639;53.170;6.728;2022-12-11T09:38:50;36.08;;;13.27;;
54743;SDS011;40639;53.170;6.728;2022-12-11T09:46:21;32.63;;;12.18;;
54743;SDS011;40639;53.170;6.728;2022-12-11T09:48:47;36.95;;;13.82;;
54743;SDS011;40639;53.170;6.728;2022-12-11T09:51:30;31.88;;;12.75;;
54743;SDS011;40639;53.170;6.728;2022-12-11T09:54:00;34.35;;;12.00;;
54743;SDS011;40639;53.170;6.728;2022-12-11T09:56:32;33.70;;;13.70;;
54743;SDS011;40639;53.170;6.728;2022-12-11T10:06:37;36.28;;;13.55;;
54743;SDS011;40639;53.170;6.728;2022-12-11T10:09:16;31.27;;;12.18;;
54743;SDS011;40639;53.170;6.728;2022-12-11T10:11:49;39.40;;;13.82;;
54743;SDS011;40639;53.170;6.728;2022-12-11T10:14:40;31.77;;;12.80;;
54743;SDS011;40639;53.170;6.728;2022-12-11T10:17:18;37.35;;;13.73;;
54743;SDS011;40639;53.170;6.728;2022-12-11T10:19:45;35.60;;;14.40;;
54743;SDS011;40639;53.170;6.728;2022-12-11T10:22:20;38.05;;;13.20;;
54743;SDS011;40639;53.170;6.728;2022-12-11T10:24:57;31.13;;;12.77;;
54743;SDS011;40639;53.170;6.728;2022-12-11T10:27:27;33.78;;;12.90;;
54743;SDS011;40639;53.170;6.728;2022-12-11T10:32:33;38.75;;;14.43;;
54743;SDS011;40639;53.170;6.728;2022-12-11T10:35:03;37.63;;;14.90;;
54743;SDS011;40639;53.170;6.728;2022-12-11T10:37:30;38.03;;;14.43;;
54743;SDS011;40639;53.170;6.728;2022-12-11T10:39:56;37.47;;;14.85;;
54743;SDS011;40639;53.170;6.728;2022-12-11T10:42:22;35.00;;;14.98;;
54743;SDS011;40639;53.170;6.728;2022-12-11T10:44:59;33.53;;;14.80;;
54743;SDS011;40639;53.170;6.728;2022-12-11T10:47:25;34.83;;;13.77;;
54743;SDS011;40639;53.170;6.728;2022-12-11T10:52:26;40.08;;;14.98;;
54743;SDS011;40639;53.170;6.728;2022-12-11T10:54:57;37.53;;;14.00;;
54743;SDS011;40639;53.170;6.728;2022-12-11T10:57:28;33.72;;;13.00;;
54743;SDS011;40639;53.170;6.728;2022-12-11T10:59:54;37.50;;;15.05;;
54743;SDS011;40639;53.170;6.728;2022-12-11T11:02:26;32.45;;;13.45;;
54743;SDS011;40639;53.170;6.728;2022-12-11T11:04:53;36.08;;;13.77;;
54743;SDS011;40639;53.170;6.728;2022-12-11T11:07:21;33.40;;;13.90;;
54743;SDS011;40639;53.170;6.728;2022-12-11T11:09:48;32.85;;;14.20;;
54743;SDS011;40639;53.170;6.728;2022-12-11T11:12:23;36.22;;;13.63;;
54743;SDS011;40639;53.170;6.728;2022-12-11T11:15:04;32.40;;;13.82;;
54743;SDS011;40639;53.170;6.728;2022-12-11T11:17:31;36.00;;;14.73;;
54743;SDS011;40639;53.170;6.728;2022-12-11T11:19:58;31.75;;;13.73;;
54743;SDS011;40639;53.170;6.728;2022-12-11T11:22:26;33.08;;;13.30;;
54743;SDS011;40639;53.170;6.728;2022-12-11T11:24:53;37.20;;;13.75;;
54743;SDS011;40639;53.170;6.728;2022-12-11T11:29:53;36.20;;;14.35;;
54743;SDS011;40639;53.170;6.728;2022-12-11T11:32:21;38.42;;;14.88;;
54743;SDS011;40639;53.170;6.728;2022-12-11T11:34:48;35.45;;;13.88;;
54743;SDS011;40639;53.170;6.728;2022-12-11T11:37:21;29.55;;;14.10;;
54743;SDS011;40639;53.170;6.728;2022-12-11T11:39:47;35.60;;;13.20;;
54743;SDS011;40639;53.170;6.728;2022-12-11T11:42:28;32.80;;;14.20;;
54743;SDS011;40639;53.170;6.728;2022-12-11T11:45:09;31.70;;;13.00;;
54743;SDS011;40639;53.170;6.728;2022-12-11T11:47:39;34.03;;;14.00;;
54743;SDS011;40639;53.170;6.728;2022-12-11T12:00:15;28.85;;;13.02;;
54743;SDS011;40639;53.170;6.728;2022-12-11T12:02:41;28.05;;;11.93;;
54743;SDS011;40639;53.170;6.728;2022-12-11T12:05:11;33.35;;;13.70;;
54743;SDS011;40639;53.170;6.728;2022-12-11T12:35:05;29.48;;;12.68;;
54743;SDS011;40639;53.170;6.728;2022-12-11T12:44:26;31.38;;;13.00;;
54743;SDS011;40639;53.170;6.728;2022-12-11T12:47:04;33.33;;;13.63;;
54743;SDS011;40639;53.170;6.728;2022-12-11T12:51:59;27.42;;;12.60;;
54743;SDS011;40639;53.170;6.728;2022-12-11T12:54:26;30.42;;;13.55;;
54743;SDS011;40639;53.170;6.728;2022-12-11T12:56:58;31.25;;;12.15;;
54743;SDS011;40639;53.170;6.728;2022-12-11T12:59:26;29.30;;;13.23;;
54743;SDS011;40639;53.170;6.728;2022-12-11T13:01:57;29.98;;;12.43;;
54743;SDS011;40639;53.170;6.728;2022-12-11T13:04:33;31.60;;;13.88;;
54743;SDS011;40639;53.170;6.728;2022-12-11T13:07:08;31.15;;;12.98;;
54743;SDS011;40639;53.170;6.728;2022-12-11T13:09:35;32.78;;;13.95;;
54743;SDS011;40639;53.170;6.728;2022-12-11T13:12:01;29.67;;;13.63;;
54743;SDS011;40639;53.170;6.728;2022-12-11T13:14:36;26.95;;;12.93;;
54743;SDS011;40639;53.170;6.728;2022-12-11T13:17:22;30.17;;;13.63;;
54743;SDS011;40639;53.170;6.728;2022-12-11T13:19:50;30.40;;;13.88;;
54743;SDS011;40639;53.170;6.728;2022-12-11T13:22:22;34.85;;;14.80;;
54743;SDS011;40639;53.170;6.728;2022-12-11T13:29:49;28.27;;;12.98;;
54743;SDS011;40639;53.170;6.728;2022-12-11T13:34:43;37.53;;;14.45;;
54743;SDS011;40639;53.170;6.728;2022-12-11T13:37:26;32.97;;;13.93;;
54743;SDS011;40639;53.170;6.728;2022-12-11T13:39:54;32.47;;;13.40;;
54743;SDS011;40639;53.170;6.728;2022-12-11T13:42:22;32.13;;;13.63;;
54743;SDS011;40639;53.170;6.728;2022-12-11T13:44:49;31.20;;;13.90;;
54743;SDS011;40639;53.170;6.728;2022-12-11T13:47:16;38.13;;;14.30;;
54743;SDS011;40639;53.170;6.728;2022-12-11T13:49:44;33.92;;;14.90;;
54743;SDS011;40639;53.170;6.728;2022-12-11T13:52:19;28.77;;;13.85;;
54743;SDS011;40639;53.170;6.728;2022-12-11T13:54:50;34.20;;;14.20;;
54743;SDS011;40639;53.170;6.728;2022-12-11T13:57:17;34.08;;;13.52;;
54743;SDS011;40639;53.170;6.728;2022-12-11T13:59:52;30.58;;;13.05;;
54743;SDS011;40639;53.170;6.728;2022-12-11T14:02:31;29.67;;;12.48;;
54743;SDS011;40639;53.170;6.728;2022-12-11T14:05:02;27.55;;;12.55;;
54743;SDS011;40639;53.170;6.728;2022-12-11T14:07:31;32.20;;;13.32;;
54743;SDS011;40639;53.170;6.728;2022-12-11T14:09:59;35.60;;;14.15;;
54743;SDS011;40639;53.170;6.728;2022-12-11T14:12:26;31.98;;;14.13;;
54743;SDS011;40639;53.170;6.728;2022-12-11T14:14:54;34.42;;;14.07;;
54743;SDS011;40639;53.170;6.728;2022-12-11T14:17:30;33.67;;;13.50;;
54743;SDS011;40639;53.170;6.728;2022-12-11T14:19:58;34.45;;;13.85;;
54743;SDS011;40639;53.170;6.728;2022-12-11T14:22:26;32.33;;;13.25;;
54743;SDS011;40639;53.170;6.728;2022-12-11T14:24:54;34.53;;;14.18;;
54743;SDS011;40639;53.170;6.728;2022-12-11T14:27:20;30.63;;;12.80;;
54743;SDS011;40639;53.170;6.728;2022-12-11T14:29:47;37.53;;;14.77;;
54743;SDS011;40639;53.170;6.728;2022-12-11T14:32:18;33.15;;;13.80;;
54743;SDS011;40639;53.170;6.728;2022-12-11T14:34:45;30.25;;;13.65;;
54743;SDS011;40639;53.170;6.728;2022-12-11T14:37:13;30.58;;;13.70;;
54743;SDS011;40639;53.170;6.728;2022-12-11T14:39:40;31.63;;;13.90;;
54743;SDS011;40639;53.170;6.728;2022-12-11T14:42:11;36.53;;;14.65;;
54743;SDS011;40639;53.170;6.728;2022-12-11T14:47:27;32.75;;;14.20;;
54743;SDS011;40639;53.170;6.728;2022-12-11T14:50:05;37.03;;;14.98;;
54743;SDS011;40639;53.170;6.728;2022-12-11T14:52:35;31.27;;;13.68;;
54743;SDS011;40639;53.170;6.728;2022-12-11T14:55:07;35.13;;;15.05;;
54743;SDS011;40639;53.170;6.728;2022-12-11T14:57:34;36.70;;;14.27;;
54743;SDS011;40639;53.170;6.728;2022-12-11T15:00:03;34.13;;;14.93;;
54743;SDS011;40639;53.170;6.728;2022-12-11T15:07:25;27.90;;;11.77;;
54743;SDS011;40639;53.170;6.728;2022-12-11T15:09:51;32.53;;;14.15;;
54743;SDS011;40639;53.170;6.728;2022-12-11T15:12:17;34.33;;;14.85;;
54743;SDS011;40639;53.170;6.728;2022-12-11T15:14:46;39.55;;;14.65;;
54743;SDS011;40639;53.170;6.728;2022-12-11T15:17:13;33.30;;;13.95;;
54743;SDS011;40639;53.170;6.728;2022-12-11T15:19:40;34.30;;;14.43;;
54743;SDS011;40639;53.170;6.728;2022-12-11T15:22:07;32.17;;;14.93;;
54743;SDS011;40639;53.170;6.728;2022-12-11T15:24:41;38.13;;;15.13;;
54743;SDS011;40639;53.170;6.728;2022-12-11T15:27:20;35.75;;;15.15;;
54743;SDS011;40639;53.170;6.728;2022-12-11T15:29:47;38.58;;;15.13;;
54743;SDS011;40639;53.170;6.728;2022-12-11T15:32:15;34.25;;;14.50;;
54743;SDS011;40639;53.170;6.728;2022-12-11T15:34:51;38.95;;;15.95;;
54743;SDS011;40639;53.170;6.728;2022-12-11T15:37:25;36.17;;;14.57;;
54743;SDS011;40639;53.170;6.728;2022-12-11T15:39:52;35.90;;;14.35;;
54743;SDS011;40639;53.170;6.728;2022-12-11T15:42:34;36.38;;;15.43;;
54743;SDS011;40639;53.170;6.728;2022-12-11T15:45:24;39.33;;;15.52;;
54743;SDS011;40639;53.170;6.728;2022-12-11T15:47:49;39.63;;;15.68;;
54743;SDS011;40639;53.170;6.728;2022-12-11T15:52:42;34.90;;;16.00;;
54743;SDS011;40639;53.170;6.728;2022-12-11T15:55:12;35.40;;;14.68;;
54743;SDS011;40639;53.170;6.728;2022-12-11T15:57:42;34.78;;;14.45;;
54743;SDS011;40639;53.170;6.728;2022-12-11T16:00:12;38.40;;;15.48;;
54743;SDS011;40639;53.170;6.728;2022-12-11T16:02:39;39.40;;;16.40;;
54743;SDS011;40639;53.170;6.728;2022-12-11T16:05:05;34.58;;;15.65;;
54743;SDS011;40639;53.170;6.728;2022-12-11T16:07:32;36.05;;;14.90;;
54743;SDS011;40639;53.170;6.728;2022-12-11T16:09:58;38.22;;;15.23;;
54743;SDS011;40639;53.170;6.728;2022-12-11T16:12:24;34.85;;;15.40;;